Time;durP1;ratioP1;P1;durP2;ratioP2;P2;SDS_P1;SDS_P2;PMS_P1;PMS_P2;Temp;Humidity;BMP_temperature;BMP_pressure;BME280_temperature;BME280_humidity;BME280_pressure;Samples;Min_cycle;Max_cycle;Signal;HPM_P1;HPM_P2
2023/03/07 00:01:26;;;;;;;13.18;6.13;;;;;;;3.73;100.00;99642.38;5135372;27;20043;-58
2023/03/07 00:03:55;;;;;;;10.95;6.22;;;;;;;3.75;100.00;99630.16;5135287;27;20054;-59
2023/03/07 00:06:23;;;;;;;13.30;7.35;;;;;;;3.73;100.00;99638.00;5135339;27;20047;-58
2023/03/07 00:08:52;;;;;;;10.20;6.53;;;;;;;3.78;100.00;99632.56;5135524;27;20039;-58
2023/03/07 00:11:21;;;;;;;12.73;7.22;;;;;;;3.73;100.00;99635.41;5135357;27;20461;-59
2023/03/07 00:13:49;;;;;;;12.43;7.68;;;;;;;3.75;100.00;99632.75;5135537;27;20041;-58
2023/03/07 00:16:19;;;;;;;11.88;6.93;;;;;;;3.72;100.00;99633.75;5135349;27;20558;-59
2023/03/07 00:18:49;;;;;;;12.05;6.35;;;;;;;3.75;100.00;99632.75;5133476;27;20046;-58
2023/03/07 00:21:19;;;;;;;10.75;6.55;;;;;;;3.77;100.00;99636.09;5132500;27;20047;-58
2023/03/07 00:23:48;;;;;;;11.85;6.32;;;;;;;3.73;100.00;99640.59;5134188;27;20046;-59
2023/03/07 00:26:17;;;;;;;11.38;6.18;;;;;;;3.68;100.00;99637.44;5134928;27;20063;-59
2023/03/07 00:28:47;;;;;;;14.48;7.05;;;;;;;3.65;100.00;99636.78;5135044;27;20058;-59
2023/03/07 00:31:16;;;;;;;13.32;6.32;;;;;;;3.66;100.00;99641.06;5134832;27;20068;-58
2023/03/07 00:33:44;;;;;;;11.15;6.32;;;;;;;3.64;100.00;99638.56;5135145;27;20122;-59
2023/03/07 00:36:16;;;;;;;13.30;5.85;;;;;;;3.67;100.00;99632.34;5135068;27;20042;-59
2023/03/07 00:38:44;;;;;;;11.18;5.50;;;;;;;3.65;100.00;99634.19;5133811;27;20490;-58
2023/03/07 00:41:15;;;;;;;11.80;5.50;;;;;;;3.64;100.00;99635.09;5132218;27;20493;-60
2023/03/07 00:43:44;;;;;;;12.38;5.55;;;;;;;3.67;100.00;99637.53;5134856;27;20055;-59
2023/03/07 00:46:15;;;;;;;10.15;5.68;;;;;;;3.71;100.00;99633.84;5133485;27;20047;-59
2023/03/07 00:48:44;;;;;;;11.68;5.22;;;;;;;3.74;100.00;99638.88;5133836;27;20043;-59
2023/03/07 00:51:15;;;;;;;10.50;5.30;;;;;;;3.70;100.00;99639.97;5132400;27;20130;-59
2023/03/07 00:53:43;;;;;;;8.52;4.47;;;;;;;3.73;100.00;99634.59;5132107;27;20047;-59
2023/03/07 00:56:14;;;;;;;9.88;4.55;;;;;;;3.72;100.00;99630.28;5133081;27;20073;-59
2023/03/07 00:58:43;;;;;;;9.50;4.90;;;;;;;3.75;100.00;99639.69;5134209;27;20237;-59
2023/03/07 01:01:12;;;;;;;10.65;5.25;;;;;;;3.74;100.00;99633.66;5132017;27;20067;-59
2023/03/07 01:03:41;;;;;;;9.15;5.10;;;;;;;3.77;100.00;99623.09;5134067;27;20130;-59
2023/03/07 01:06:14;;;;;;;10.52;5.75;;;;;;;3.78;100.00;99629.97;5132904;27;20031;-59
2023/03/07 01:08:42;;;;;;;12.63;6.50;;;;;;;3.80;100.00;99630.69;5133079;27;20047;-58
2023/03/07 01:11:11;;;;;;;12.93;6.30;;;;;;;3.80;100.00;99625.50;5132998;27;20126;-59
2023/03/07 01:13:40;;;;;;;11.82;6.40;;;;;;;3.79;100.00;99620.38;5132880;27;20047;-60
2023/03/07 01:16:10;;;;;;;14.90;5.88;;;;;;;3.77;100.00;99612.69;5133076;27;20070;-59
2023/03/07 01:18:39;;;;;;;12.43;6.97;;;;;;;3.77;100.00;99612.69;5133069;27;20609;-59
2023/03/07 01:21:16;;;;;;;13.85;7.00;;;;;;;3.75;100.00;99606.75;5133900;27;20478;-59
2023/03/07 01:23:45;;;;;;;13.43;7.35;;;;;;;3.76;100.00;99611.00;5132867;27;20494;-59
2023/03/07 01:26:14;;;;;;;15.65;7.72;;;;;;;3.78;100.00;99610.94;5133283;27;20045;-59
2023/03/07 01:28:42;;;;;;;13.68;7.97;;;;;;;3.75;100.00;99606.75;5132726;27;20063;-59
2023/03/07 01:31:11;;;;;;;13.82;8.32;;;;;;;3.80;100.00;99606.47;5133807;27;20043;-59
2023/03/07 01:33:39;;;;;;;15.63;8.88;;;;;;;3.80;100.00;99603.88;5132711;27;20236;-59
2023/03/07 01:36:18;;;;;;;18.17;9.00;;;;;;;3.80;100.00;99583.88;5132767;27;20047;-59
2023/03/07 01:38:46;;;;;;;14.45;7.90;;;;;;;3.82;100.00;99595.06;5134093;27;20122;-60
2023/03/07 01:41:16;;;;;;;16.65;8.30;;;;;;;3.82;100.00;99583.81;5134120;27;20070;-59
2023/03/07 01:43:44;;;;;;;15.75;7.88;;;;;;;3.82;100.00;99584.66;5133942;27;20060;-59
2023/03/07 01:46:40;;;;;;;14.88;7.78;;;;;;;3.85;100.00;99583.66;5132355;27;20375;-60
2023/03/07 01:49:16;;;;;;;13.82;7.45;;;;;;;3.82;100.00;99584.66;5132633;27;20055;-58
2023/03/07 01:51:49;;;;;;;17.40;8.23;;;;;;;3.83;100.00;99572.47;5130772;28;20039;-59
2023/03/07 01:54:19;;;;;;;13.50;7.63;;;;;;;3.87;100.00;99576.56;5133514;27;20050;-59
2023/03/07 01:56:48;;;;;;;12.57;7.22;;;;;;;3.82;100.00;99574.25;5132453;28;20512;-59
2023/03/07 01:59:21;;;;;;;14.27;6.78;;;;;;;3.81;100.00;99567.38;5132610;27;20100;-59
2023/03/07 02:01:51;;;;;;;13.05;6.35;;;;;;;3.83;100.00;99570.72;5132426;27;20043;-59
2023/03/07 02:04:25;;;;;;;11.98;6.50;;;;;;;3.81;100.00;99572.56;5132465;28;20039;-59
2023/03/07 02:06:55;;;;;;;11.43;6.40;;;;;;;3.85;100.00;99563.66;5132308;27;20493;-59
2023/03/07 02:09:27;;;;;;;14.27;6.93;;;;;;;3.84;100.00;99569.78;5132807;27;20374;-60
2023/03/07 02:11:56;;;;;;;11.48;6.57;;;;;;;3.81;100.00;99556.97;5133120;27;20463;-60
2023/03/07 02:14:24;;;;;;;12.48;6.97;;;;;;;3.84;100.00;99551.56;5137195;27;20100;-61
2023/03/07 02:16:53;;;;;;;15.10;6.85;;;;;;;3.86;100.00;99552.34;5136380;27;20126;-60
2023/03/07 02:19:41;;;;;;;14.00;6.80;;;;;;;3.86;100.00;99554.13;5137753;27;20039;-60
2023/03/07 02:22:13;;;;;;;12.90;7.15;;;;;;;3.87;100.00;99548.81;5137376;27;20054;-60
2023/03/07 02:24:48;;;;;;;12.35;7.15;;;;;;;3.83;100.00;99552.53;5136352;27;20058;-60
2023/03/07 02:27:17;;;;;;;12.85;6.90;;;;;;;3.88;100.00;99550.47;5135440;27;20047;-60
2023/03/07 02:29:45;;;;;;;11.20;6.25;;;;;;;3.85;100.00;99549.84;5134692;27;20047;-59
2023/03/07 02:32:14;;;;;;;14.73;6.88;;;;;;;3.88;100.00;99547.03;5136918;27;20490;-59
2023/03/07 02:34:43;;;;;;;14.45;6.80;;;;;;;3.92;100.00;99542.50;5134893;27;20068;-59
2023/03/07 02:37:15;;;;;;;14.38;7.20;;;;;;;3.97;100.00;99548.28;5136409;27;20062;-59
2023/03/07 02:39:46;;;;;;;11.02;6.47;;;;;;;3.89;100.00;99541.75;5135913;27;20051;-59
2023/03/07 02:42:21;;;;;;;11.75;6.57;;;;;;;3.89;100.00;99549.56;5136957;27;20063;-59
2023/03/07 02:44:56;;;;;;;12.70;6.88;;;;;;;3.86;100.00;99544.53;5135559;27;20043;-58
2023/03/07 02:47:25;;;;;;;11.82;6.53;;;;;;;3.86;100.00;99547.13;5137061;27;20050;-58
2023/03/07 02:49:53;;;;;;;11.70;6.97;;;;;;;3.81;100.00;99549.16;5137096;27;20035;-59
2023/03/07 02:52:22;;;;;;;14.35;6.78;;;;;;;3.89;100.00;99554.75;5134540;27;20043;-58
2023/03/07 02:54:50;;;;;;;12.45;7.35;;;;;;;3.84;100.00;99554.19;5134220;27;20122;-59
2023/03/07 02:57:20;;;;;;;13.32;6.95;;;;;;;3.83;100.00;99555.13;5134694;27;20577;-58
2023/03/07 02:59:48;;;;;;;13.02;8.10;;;;;;;3.87;100.00;99554.03;5134063;27;20076;-58
2023/03/07 03:02:16;;;;;;;14.23;7.10;;;;;;;3.82;100.00;99548.25;5135517;27;20037;-58
2023/03/07 03:04:44;;;;;;;13.57;6.80;;;;;;;3.82;100.00;99544.81;5136742;27;20490;-58
2023/03/07 03:07:12;;;;;;;12.68;6.57;;;;;;;3.80;100.00;99542.28;5134431;27;20392;-58
2023/03/07 03:09:40;;;;;;;14.60;6.10;;;;;;;3.83;100.00;99546.47;5134999;27;20070;-59
2023/03/07 03:12:09;;;;;;;12.00;6.97;;;;;;;3.78;100.00;99546.75;5135799;27;20058;-59
2023/03/07 03:14:38;;;;;;;12.85;6.45;;;;;;;3.75;100.00;99546.94;5134488;27;20055;-58
2023/03/07 03:17:06;;;;;;;12.07;6.78;;;;;;;3.80;100.00;99549.25;5134695;27;20043;-59
2023/03/07 03:19:34;;;;;;;10.95;6.35;;;;;;;3.82;100.00;99547.41;5134079;27;20058;-59
2023/03/07 03:22:02;;;;;;;12.10;6.35;;;;;;;3.77;100.00;99539.84;5135829;27;20442;-59
2023/03/07 03:24:30;;;;;;;11.43;5.78;;;;;;;3.80;100.00;99536.25;5133528;27;20112;-59
2023/03/07 03:27:01;;;;;;;11.63;6.57;;;;;;;3.80;100.00;99539.66;5135337;27;20050;-59
2023/03/07 03:29:29;;;;;;;10.63;5.85;;;;;;;3.78;100.00;99536.34;5136252;27;20047;-59
2023/03/07 03:31:59;;;;;;;9.60;5.22;;;;;;;3.78;100.00;99536.34;5136239;27;20046;-59
2023/03/07 03:34:27;;;;;;;12.45;5.65;;;;;;;3.81;100.00;99536.16;5135713;27;20054;-59
2023/03/07 03:36:55;;;;;;;10.38;5.57;;;;;;;3.75;100.00;99525.25;5134240;27;20049;-59
2023/03/07 03:39:23;;;;;;;10.98;5.43;;;;;;;3.78;100.00;99527.72;5134641;27;20131;-59
2023/03/07 03:41:52;;;;;;;10.43;5.55;;;;;;;3.76;100.00;99524.34;5135285;27;20069;-58
2023/03/07 03:44:20;;;;;;;12.00;5.55;;;;;;;3.77;100.00;99523.44;5133821;27;20047;-59
2023/03/07 03:46:48;;;;;;;12.95;6.03;;;;;;;3.76;100.00;99519.16;5134059;27;20051;-59
2023/03/07 03:49:18;;;;;;;9.95;5.65;;;;;;;3.70;100.00;99517.75;5135931;27;20132;-60
2023/03/07 03:51:46;;;;;;;9.75;5.80;;;;;;;3.67;100.00;99512.72;5133826;27;20059;-59
2023/03/07 03:54:14;;;;;;;11.75;6.28;;;;;;;3.69;100.00;99511.69;5132702;27;20047;-60
2023/03/07 03:56:45;;;;;;;14.07;6.10;;;;;;;3.74;100.00;99508.84;5133789;27;20066;-59
2023/03/07 03:59:13;;;;;;;11.07;6.47;;;;;;;3.75;100.00;99517.47;5134462;27;20054;-58
2023/03/07 04:01:41;;;;;;;12.95;6.47;;;;;;;3.76;100.00;99508.75;5134166;27;20445;-59
2023/03/07 04:04:09;;;;;;;11.55;7.13;;;;;;;3.75;100.00;99514.88;5134676;27;20118;-59
2023/03/07 04:06:38;;;;;;;15.43;6.70;;;;;;;3.79;100.00;99511.16;5134995;27;20509;-59
2023/03/07 04:09:06;;;;;;;14.00;7.80;;;;;;;3.78;100.00;99519.91;5134175;27;20486;-59
2023/03/07 04:11:35;;;;;;;12.13;6.93;;;;;;;3.79;100.00;99512.00;5134123;27;20480;-59
2023/03/07 04:14:04;;;;;;;15.20;8.13;;;;;;;3.79;100.00;99514.63;5133991;27;20047;-59
2023/03/07 04:16:32;;;;;;;16.08;8.02;;;;;;;3.70;100.00;99509.94;5133943;27;20047;-59
2023/03/07 04:19:00;;;;;;;15.60;9.32;;;;;;;3.76;100.00;99506.13;5134398;27;20050;-59
2023/03/07 04:21:28;;;;;;;17.75;8.88;;;;;;;3.77;100.00;99500.03;5135230;27;20051;-59
2023/03/07 04:23:57;;;;;;;17.42;9.45;;;;;;;3.78;100.00;99506.91;5134490;27;20498;-59
2023/03/07 04:26:25;;;;;;;18.60;9.35;;;;;;;3.79;100.00;99501.59;5134095;27;20058;-59
2023/03/07 04:28:54;;;;;;;18.40;9.40;;;;;;;3.75;100.00;99496.66;5134183;27;20494;-59
2023/03/07 04:31:24;;;;;;;16.02;8.77;;;;;;;3.75;100.00;99489.72;5133640;27;20031;-59
2023/03/07 04:33:53;;;;;;;16.10;9.43;;;;;;;3.72;100.00;99495.06;5134371;27;20078;-59
2023/03/07 04:36:22;;;;;;;16.10;8.88;;;;;;;3.66;100.00;99493.66;5135049;27;20538;-60
2023/03/07 04:38:50;;;;;;;15.85;8.45;;;;;;;3.69;100.00;99488.28;5133574;27;20051;-60
2023/03/07 04:41:22;;;;;;;14.15;7.85;;;;;;;3.65;100.00;99485.97;5133760;27;20032;-59
2023/03/07 04:43:50;;;;;;;12.70;7.23;;;;;;;3.66;100.00;99480.66;5133744;27;20064;-59
2023/03/07 04:46:19;;;;;;;11.48;6.43;;;;;;;3.62;100.00;99473.16;5134720;27;20130;-59
2023/03/07 04:48:47;;;;;;;13.38;6.70;;;;;;;3.58;100.00;99482.88;5134709;27;20047;-59
2023/03/07 04:51:18;;;;;;;15.13;6.63;;;;;;;3.66;100.00;99479.84;5131869;27;20039;-59
2023/03/07 04:53:47;;;;;;;13.45;6.72;;;;;;;3.64;100.00;99476.47;5132116;27;20043;-59
2023/03/07 04:56:15;;;;;;;11.18;6.60;;;;;;;3.62;100.00;99475.75;5134000;27;20122;-59
2023/03/07 04:58:45;;;;;;;16.88;6.82;;;;;;;3.62;100.00;99476.56;5132063;27;20112;-59
2023/03/07 05:01:13;;;;;;;15.45;6.65;;;;;;;3.63;100.00;99475.66;5133185;27;20060;-59
2023/03/07 05:03:41;;;;;;;15.38;6.75;;;;;;;3.57;100.00;99472.56;5132703;27;20135;-58
2023/03/07 05:06:13;;;;;;;12.77;6.15;;;;;;;3.61;100.00;99471.47;5131213;27;20375;-58
2023/03/07 05:08:41;;;;;;;14.40;7.03;;;;;;;3.54;100.00;99470.97;5134143;27;20077;-58
2023/03/07 05:11:09;;;;;;;12.70;5.60;;;;;;;3.48;100.00;99466.97;5134127;27;20043;-59
2023/03/07 05:13:37;;;;;;;10.63;5.75;;;;;;;3.51;100.00;99464.19;5132770;27;20135;-59
2023/03/07 05:16:07;;;;;;;12.63;5.45;;;;;;;3.49;100.00;99460.00;5133944;27;20043;-59
2023/03/07 05:18:36;;;;;;;13.18;5.93;;;;;;;3.51;100.00;99461.59;5131631;27;20498;-59
2023/03/07 05:21:04;;;;;;;10.75;5.65;;;;;;;3.51;100.00;99456.38;5131249;27;20146;-58
2023/03/07 05:23:32;;;;;;;12.70;5.60;;;;;;;3.48;100.00;99461.78;5134074;27;20524;-58
2023/03/07 05:26:00;;;;;;;12.88;5.78;;;;;;;3.56;100.00;99453.53;5133931;27;20062;-59
2023/03/07 05:28:28;;;;;;;14.10;5.97;;;;;;;3.52;100.00;99455.47;5133836;27;20067;-58
2023/03/07 05:30:56;;;;;;;9.68;5.10;;;;;;;3.49;100.00;99455.66;5133456;27;20125;-58
2023/03/07 05:33:26;;;;;;;12.52;5.68;;;;;;;3.46;100.00;99455.00;5133769;27;20435;-58
2023/03/07 05:35:55;;;;;;;10.40;5.72;;;;;;;3.47;100.00;99451.47;5133293;27;20379;-59
2023/03/07 05:38:23;;;;;;;13.30;5.90;;;;;;;3.45;100.00;99451.56;5131500;27;20154;-60
2023/03/07 05:40:51;;;;;;;13.90;5.65;;;;;;;3.46;100.00;99450.63;5132741;27;20039;-59
2023/03/07 05:43:19;;;;;;;17.63;6.68;;;;;;;3.44;100.00;99454.25;5131918;27;20050;-59
2023/03/07 05:45:47;;;;;;;12.73;5.32;;;;;;;3.43;100.00;99455.19;5130910;27;20093;-58
2023/03/07 05:48:15;;;;;;;11.57;6.60;;;;;;;3.40;100.00;99450.97;5132524;27;20505;-58
2023/03/07 05:50:45;;;;;;;11.80;6.45;;;;;;;3.41;100.00;99455.25;5130823;27;20067;-59
2023/03/07 05:53:13;;;;;;;12.50;5.57;;;;;;;3.41;100.00;99460.47;5131780;28;20047;-58
2023/03/07 05:55:41;;;;;;;14.52;5.80;;;;;;;3.43;100.00;99458.59;5131407;28;20039;-58
2023/03/07 05:58:09;;;;;;;17.25;7.28;;;;;;;3.47;100.00;99460.09;5131064;27;20297;-58
2023/03/07 06:00:37;;;;;;;12.05;6.45;;;;;;;3.41;100.00;99462.22;5133709;28;20494;-58
2023/03/07 06:03:08;;;;;;;14.23;6.57;;;;;;;3.41;100.00;99463.06;5132618;27;20036;-58
2023/03/07 06:05:36;;;;;;;11.85;6.80;;;;;;;3.43;100.00;99469.00;5129950;27;20051;-59
2023/03/07 06:08:06;;;;;;;14.25;6.57;;;;;;;3.38;100.00;99468.41;5132078;27;20054;-59
2023/03/07 06:10:35;;;;;;;11.38;5.65;;;;;;;3.23;100.00;99472.72;5133330;27;20043;-58
2023/03/07 06:13:04;;;;;;;12.68;5.25;;;;;;;3.20;100.00;99471.16;5133312;27;20390;-58
2023/03/07 06:15:32;;;;;;;10.38;5.25;;;;;;;3.17;100.00;99473.91;5131974;28;20100;-58
2023/03/07 06:18:00;;;;;;;9.90;5.18;;;;;;;3.14;100.00;99479.28;5131919;27;20085;-58
2023/03/07 06:20:28;;;;;;;8.48;4.00;;;;;;;3.14;100.00;99474.09;5131373;27;20063;-58
2023/03/07 06:23:00;;;;;;;10.73;4.70;;;;;;;3.05;100.00;99477.19;5130931;27;20055;-58
2023/03/07 06:25:29;;;;;;;10.07;4.18;;;;;;;3.06;100.00;99480.66;5129609;28;20059;-58
2023/03/07 06:28:00;;;;;;;10.98;3.90;;;;;;;3.08;100.00;99473.59;5130573;28;20053;-58
2023/03/07 06:30:28;;;;;;;9.05;3.92;;;;;;;3.09;100.00;99465.72;5131991;28;20083;-58
2023/03/07 06:32:56;;;;;;;11.77;3.90;;;;;;;3.02;100.00;99477.38;5131622;27;20820;-49
2023/03/07 06:35:24;;;;;;;9.48;3.38;;;;;;;2.85;100.00;99486.94;5128729;28;20486;-51
2023/03/07 06:37:53;;;;;;;6.63;1.73;;;;;;;2.57;100.00;99484.16;5132502;27;20047;-50
2023/03/07 06:40:21;;;;;;;3.95;1.50;;;;;;;2.35;100.00;99496.50;5132925;28;20055;-49
2023/03/07 06:42:52;;;;;;;3.38;1.17;;;;;;;2.45;100.00;99501.22;5133060;27;20520;-52
2023/03/07 06:45:20;;;;;;;3.33;1.23;;;;;;;2.45;100.00;99501.22;5132894;27;20047;-49
2023/03/07 06:47:48;;;;;;;4.90;1.27;;;;;;;2.30;100.00;99503.69;5133184;27;20386;-52
2023/03/07 06:50:16;;;;;;;5.10;1.50;;;;;;;2.27;100.00;99503.03;5132858;27;20043;-51
2023/03/07 06:52:56;;;;;;;2.05;0.80;;;;;;;1.99;100.00;99504.44;5129440;27;20474;-52
2023/03/07 06:55:25;;;;;;;5.13;1.00;;;;;;;2.01;100.00;99505.19;5129637;28;20047;-50
2023/03/07 06:57:54;;;;;;;5.32;1.08;;;;;;;2.01;100.00;99503.44;5131146;27;20035;-51
2023/03/07 07:00:25;;;;;;;;;;;;;;;1.91;100.00;99506.56;5137610;27;20531;-58
2023/03/07 07:02:53;;;;;;;3.03;0.93;;;;;;;1.96;100.00;99507.19;5136569;27;19919;-54
2023/03/07 07:05:22;;;;;;;3.70;0.85;;;;;;;1.91;100.00;99509.16;5135817;27;20501;-51
2023/03/07 07:07:50;;;;;;;5.10;1.00;;;;;;;1.74;100.00;99521.22;5135804;27;20100;-51
2023/03/07 07:10:18;;;;;;;3.47;0.88;;;;;;;1.88;100.00;99517.94;5134487;27;20105;-52
2023/03/07 07:12:46;;;;;;;3.08;0.90;;;;;;;1.79;100.00;99521.84;5135954;27;20077;-58
2023/03/07 07:15:16;;;;;;;2.83;0.90;;;;;;;1.84;100.00;99524.19;5136280;27;20092;-58
2023/03/07 07:17:44;;;;;;;2.15;1.10;;;;;;;1.83;100.00;99527.72;5134998;27;20074;-58
2023/03/07 07:20:12;;;;;;;4.47;1.23;;;;;;;1.90;100.00;99517.88;5134968;27;20423;-58
2023/03/07 07:22:41;;;;;;;6.18;1.75;;;;;;;1.95;100.00;99524.50;5135603;27;20104;-58
2023/03/07 07:25:09;;;;;;;4.10;1.13;;;;;;;1.82;100.00;99518.25;5135406;27;20520;-58
2023/03/07 07:27:38;;;;;;;6.13;1.33;;;;;;;1.87;100.00;99524.06;5134927;27;20078;-58
2023/03/07 07:30:07;;;;;;;6.30;1.73;;;;;;;1.92;100.00;99522.03;5135185;27;20043;-58
2023/03/07 07:32:37;;;;;;;5.45;1.38;;;;;;;1.90;100.00;99523.06;5135923;27;20043;-58
2023/03/07 07:35:06;;;;;;;4.05;1.35;;;;;;;1.77;100.00;99518.50;5134655;27;20050;-58
2023/03/07 07:37:34;;;;;;;5.40;1.10;;;;;;;1.75;100.00;99515.13;5134642;27;20074;-58
2023/03/07 07:40:04;;;;;;;3.83;1.10;;;;;;;1.84;100.00;99521.59;5134977;27;20111;-58
2023/03/07 07:42:32;;;;;;;3.67;1.30;;;;;;;1.73;100.00;99524.72;5135298;27;20125;-59
2023/03/07 07:45:00;;;;;;;3.33;1.15;;;;;;;1.71;100.00;99526.56;5136397;27;20122;-58
2023/03/07 07:47:28;;;;;;;4.47;1.45;;;;;;;1.64;100.00;99523.44;5136261;27;20096;-58
2023/03/07 07:49:58;;;;;;;4.95;1.17;;;;;;;1.63;100.00;99526.09;5135348;27;20062;-58
2023/03/07 07:52:26;;;;;;;3.83;1.48;;;;;;;1.68;100.00;99524.13;5134786;27;20043;-58
2023/03/07 07:54:54;;;;;;;5.15;1.50;;;;;;;1.75;100.00;99529.84;5134324;27;20043;-58
2023/03/07 07:57:22;;;;;;;5.18;2.00;;;;;;;1.78;100.00;99529.69;5135680;27;20047;-58
2023/03/07 07:59:50;;;;;;;3.40;1.30;;;;;;;1.81;100.00;99532.97;5134770;27;20051;-58
2023/03/07 08:02:19;;;;;;;2.60;1.25;;;;;;;1.81;100.00;99530.38;5135406;27;20058;-58
2023/03/07 08:04:47;;;;;;;2.30;1.10;;;;;;;1.84;100.00;99537.16;5135775;27;20039;-58
2023/03/07 08:07:17;;;;;;;3.30;1.20;;;;;;;1.84;100.00;99534.56;5134349;27;20509;-58
2023/03/07 08:09:45;;;;;;;3.75;1.17;;;;;;;1.76;100.00;99539.28;5134200;27;20142;-58
2023/03/07 08:12:13;;;;;;;5.70;1.42;;;;;;;1.77;100.00;99547.00;5134848;27;20038;-58
2023/03/07 08:14:41;;;;;;;3.70;1.48;;;;;;;1.81;100.00;99548.53;5133828;27;20043;-58
2023/03/07 08:17:09;;;;;;;4.00;1.30;;;;;;;1.84;100.00;99553.56;5134109;27;20497;-58
2023/03/07 08:19:37;;;;;;;5.38;1.58;;;;;;;1.92;100.00;99544.56;5132692;27;20054;-58
2023/03/07 08:22:05;;;;;;;3.28;1.27;;;;;;;1.81;100.00;99548.53;5133536;27;20051;-58
2023/03/07 08:24:35;;;;;;;3.47;1.73;;;;;;;1.68;100.00;99553.47;5134871;27;20050;-58
2023/03/07 08:27:08;;;;;;;3.50;1.80;;;;;;;1.61;100.00;99551.25;5134779;27;20504;-58
2023/03/07 08:29:36;;;;;;;6.57;2.10;;;;;;;1.64;100.00;99559.72;5134282;27;20485;-58
2023/03/07 08:32:04;;;;;;;5.60;2.08;;;;;;;1.72;100.00;99554.16;5133818;27;20091;-58
2023/03/07 08:34:33;;;;;;;4.20;1.70;;;;;;;1.77;100.00;99559.13;5131958;27;20051;-58
2023/03/07 08:37:01;;;;;;;3.13;1.25;;;;;;;1.80;100.00;99562.41;5132400;27;20485;-58
2023/03/07 08:39:29;;;;;;;4.53;1.50;;;;;;;1.80;100.00;99566.72;5131947;27;20055;-58
2023/03/07 08:42:01;;;;;;;3.58;1.38;;;;;;;1.84;100.00;99558.75;5134468;27;20055;-58
2023/03/07 08:44:29;;;;;;;5.97;1.85;;;;;;;1.94;100.00;99556.53;5135011;27;20440;-58
2023/03/07 08:47:00;;;;;;;5.35;1.80;;;;;;;1.91;100.00;99555.84;5135129;27;20482;-58
2023/03/07 08:49:28;;;;;;;4.95;1.70;;;;;;;1.87;100.00;99568.13;5134354;27;20474;-59
2023/03/07 08:51:56;;;;;;;3.53;1.75;;;;;;;1.86;100.00;99567.28;5133239;27;20042;-59
2023/03/07 08:54:24;;;;;;;4.95;1.90;;;;;;;1.89;100.00;99565.47;5134212;27;20053;-58
2023/03/07 08:56:52;;;;;;;5.35;2.20;;;;;;;1.92;100.00;99565.31;5134823;27;20118;-59
2023/03/07 08:59:22;;;;;;;4.60;2.00;;;;;;;1.97;100.00;99563.31;5133868;27;20477;-59
2023/03/07 09:01:50;;;;;;;5.47;2.55;;;;;;;1.86;100.00;99562.09;5133495;27;20072;-59
2023/03/07 09:04:18;;;;;;;6.57;2.45;;;;;;;2.00;100.00;99566.63;5134518;27;20069;-59
2023/03/07 09:06:46;;;;;;;5.97;2.50;;;;;;;2.06;100.00;99559.41;5133808;27;20152;-58
2023/03/07 09:09:14;;;;;;;6.70;2.65;;;;;;;2.05;100.00;99566.38;5133268;27;20103;-59
2023/03/07 09:11:42;;;;;;;7.47;2.70;;;;;;;2.13;100.00;99564.22;5132854;27;20068;-59
2023/03/07 09:14:11;;;;;;;6.68;2.95;;;;;;;2.06;100.00;99560.28;5133036;27;20039;-58
2023/03/07 09:16:42;;;;;;;7.50;3.55;;;;;;;2.02;100.00;99567.34;5131868;27;20086;-59
2023/03/07 09:19:11;;;;;;;8.50;3.40;;;;;;;2.12;100.00;99566.91;5133670;27;20055;-58
2023/03/07 09:21:39;;;;;;;7.95;3.20;;;;;;;2.19;100.00;99556.13;5132023;27;20066;-58
2023/03/07 09:24:08;;;;;;;7.65;3.25;;;;;;;2.19;100.00;99566.50;5132507;27;20417;-58
2023/03/07 09:26:36;;;;;;;9.48;3.53;;;;;;;2.26;100.00;99566.19;5131338;27;20093;-59
2023/03/07 09:29:04;;;;;;;7.03;3.33;;;;;;;2.15;100.00;99556.38;5134194;27;20043;-58
2023/03/07 09:31:32;;;;;;;8.35;3.97;;;;;;;2.25;100.00;99554.13;5132756;27;20078;-58
2023/03/07 09:34:02;;;;;;;7.03;3.75;;;;;;;2.24;100.00;99570.66;5134065;27;20045;-59
2023/03/07 09:36:30;;;;;;;7.78;3.70;;;;;;;2.31;100.00;99566.81;5134046;27;20047;-59
2023/03/07 09:38:58;;;;;;;6.53;3.53;;;;;;;2.38;100.00;99568.16;5133824;27;20206;-58
2023/03/07 09:41:55;;;;;;;6.13;3.25;;;;;;;2.42;100.00;99564.50;5132807;27;20050;-58
2023/03/07 09:44:36;;;;;;;6.82;3.72;;;;;;;2.47;100.00;99565.09;5125470;27;20394;-58
2023/03/07 09:47:20;;;;;;;7.25;3.38;;;;;;;2.50;100.00;99557.16;5133053;27;20072;-58
2023/03/07 09:49:51;;;;;;;7.15;3.55;;;;;;;2.59;100.00;99561.03;5132458;27;20047;-59
2023/03/07 09:52:22;;;;;;;6.72;3.30;;;;;;;2.46;100.00;99550.44;5131685;27;20058;-49
2023/03/07 09:54:56;;;;;;;6.43;3.63;;;;;;;2.53;100.00;99564.75;5132685;27;20045;-51
2023/03/07 09:57:28;;;;;;;9.07;3.53;;;;;;;2.64;100.00;99566.81;5132688;27;20518;-52
2023/03/07 10:00:00;;;;;;;8.55;3.60;;;;;;;2.70;100.00;99565.66;5132658;28;20053;-49
2023/03/07 10:02:31;;;;;;;;;;;;;;;2.74;100.00;99571.50;5130381;27;20047;-49
2023/03/07 10:05:11;;;;;;;6.90;3.58;;;;;;;2.72;100.00;99569.00;5131492;28;19925;-50
2023/03/07 10:07:40;;;;;;;8.45;4.00;;;;;;;2.74;100.00;99568.91;5133367;28;20051;-50
2023/03/07 10:10:17;;;;;;;7.65;4.10;;;;;;;2.69;100.00;99569.19;5133044;27;20040;-51
2023/03/07 10:13:04;;;;;;;9.02;4.63;;;;;;;2.74;100.00;99564.59;5133159;27;20051;-50
2023/03/07 10:15:45;;;;;;;8.50;4.05;;;;;;;2.79;100.00;99565.16;5133360;27;20104;-49
2023/03/07 10:18:46;;;;;;;8.95;3.83;;;;;;;2.85;100.00;99569.19;5130701;27;20100;-48
2023/03/07 10:21:23;;;;;;;10.10;5.63;;;;;;;2.88;100.00;99572.47;5127424;28;20371;-51
2023/03/07 10:24:25;;;;;;;6.70;3.67;;;;;;;2.85;100.00;99575.22;5131491;27;20138;-49
2023/03/07 10:27:00;;;;;;;6.40;3.47;;;;;;;2.92;100.00;99567.09;5099123;27;20055;-52
2023/03/07 10:29:35;;;;;;;6.82;3.42;;;;;;;2.97;100.00;99571.16;5131728;28;20050;-50
2023/03/07 10:32:19;;;;;;;7.55;3.40;;;;;;;3.11;100.00;99574.72;5133162;28;20046;-52
2023/03/07 10:34:49;;;;;;;5.25;2.40;;;;;;;3.16;100.00;99575.31;5136081;27;20382;-48
2023/03/07 10:37:21;;;;;;;5.65;2.88;;;;;;;3.08;100.00;99567.97;5136704;27;20041;-51
2023/03/07 10:39:52;;;;;;;6.60;2.77;;;;;;;3.24;100.00;99572.31;5134797;27;20055;-48
2023/03/07 10:42:22;;;;;;;6.25;2.60;;;;;;;3.36;100.00;99574.25;5132475;27;20440;-48
2023/03/07 10:44:53;;;;;;;4.97;2.22;;;;;;;3.50;100.00;99573.47;5132108;27;20100;-47
2023/03/07 10:47:24;;;;;;;6.22;2.60;;;;;;;3.57;100.00;99571.38;5133413;27;20047;-48
2023/03/07 10:49:56;;;;;;;6.68;2.40;;;;;;;3.60;100.00;99568.59;5132074;27;20138;-48
2023/03/07 10:52:35;;;;;;;6.00;2.53;;;;;;;3.68;100.00;99567.25;5135429;27;20058;-49
2023/03/07 10:55:45;;;;;;;6.53;2.28;;;;;;;3.72;100.00;99573.94;5136720;27;20051;-51
2023/03/07 10:58:22;;;;;;;4.72;1.73;;;;;;;3.75;100.00;99566.88;5118859;27;20096;-48
2023/03/07 11:01:03;;;;;;;6.55;2.28;;;;;;;3.76;100.00;99569.38;5133786;27;20489;-47
2023/03/07 11:03:38;;;;;;;5.60;2.30;;;;;;;3.83;100.00;99573.34;5134837;27;20043;-49
2023/03/07 11:06:37;;;;;;;5.07;2.28;;;;;;;3.84;100.00;99577.59;5132058;27;20167;-49
2023/03/07 11:09:22;;;;;;;3.20;1.90;;;;;;;3.77;100.00;99568.47;5133391;27;20051;-48
2023/03/07 11:11:53;;;;;;;4.55;1.80;;;;;;;3.83;100.00;99573.34;5134361;27;20062;-48
2023/03/07 11:14:22;;;;;;;3.95;1.50;;;;;;;3.84;100.00;99576.75;5134412;27;20139;-51
2023/03/07 11:16:56;;;;;;;5.57;1.80;;;;;;;3.84;100.00;99574.16;5132246;27;20111;-50
2023/03/07 11:19:30;;;;;;;4.13;1.92;;;;;;;3.83;100.00;99577.69;5133282;27;20091;-52
2023/03/07 11:22:00;;;;;;;3.40;1.92;;;;;;;3.79;100.00;99568.38;5133293;27;20058;-52
2023/03/07 11:24:33;;;;;;;3.35;1.60;;;;;;;3.85;100.00;99576.66;5132635;27;20130;-53
2023/03/07 11:27:01;;;;;;;3.95;2.00;;;;;;;3.94;100.00;99572.72;5135264;27;20039;-48
2023/03/07 11:29:33;;;;;;;5.50;2.05;;;;;;;3.87;100.00;99577.44;5135556;27;20505;-51
2023/03/07 11:32:13;;;;;;;3.42;1.58;;;;;;;3.93;100.00;99577.97;5135979;27;20542;-50
2023/03/07 11:34:49;;;;;;;5.75;1.98;;;;;;;3.96;100.00;99575.22;5135996;27;20074;-48
2023/03/07 11:37:28;;;;;;;4.65;1.60;;;;;;;4.00;100.00;99581.94;5135851;27;20497;-51
2023/03/07 11:40:14;;;;;;;4.68;1.85;;;;;;;3.99;100.00;99580.25;5132838;27;20055;-50
2023/03/07 11:42:49;;;;;;;4.55;1.67;;;;;;;3.98;100.00;99581.16;5133525;27;20069;-48
2023/03/07 11:45:33;;;;;;;3.05;1.63;;;;;;;3.95;100.00;99586.56;5134982;27;20054;-50